sensor_id;sensor_type;location;lat;lon;timestamp;pressure;altitude;pressure_sealevel;temperature;humidity
20630;BME280;17386;43.846;25.950;2022-08-21T00:01:20;100529.81;;;26.07;71.94
20630;BME280;17386;43.846;25.950;2022-08-21T00:03:47;100528.31;;;26.12;71.90
20630;BME280;17386;43.846;25.950;2022-08-21T00:06:13;100531.06;;;26.12;72.67
20630;BME280;17386;43.846;25.950;2022-08-21T00:08:38;100529.09;;;25.97;74.19
20630;BME280;17386;43.846;25.950;2022-08-21T00:11:05;100533.66;;;25.96;74.94
20630;BME280;17386;43.846;25.950;2022-08-21T00:13:30;100533.34;;;25.99;75.31
20630;BME280;17386;43.846;25.950;2022-08-21T00:15:58;100540.34;;;26.02;75.72
20630;BME280;17386;43.846;25.950;2022-08-21T00:18:23;100535.25;;;26.07;76.15
20630;BME280;17386;43.846;25.950;2022-08-21T00:20:49;100536.66;;;26.11;75.67
20630;BME280;17386;43.846;25.950;2022-08-21T00:23:15;100533.59;;;26.14;76.07
20630;BME280;17386;43.846;25.950;2022-08-21T00:25:42;100525.94;;;26.09;76.35
20630;BME280;17386;43.846;25.950;2022-08-21T00:28:08;100529.13;;;26.05;77.48
20630;BME280;17386;43.846;25.950;2022-08-21T00:30:34;100530.31;;;26.02;77.97
20630;BME280;17386;43.846;25.950;2022-08-21T00:33:00;100530.44;;;26.01;78.63
20630;BME280;17386;43.846;25.950;2022-08-21T00:35:37;100527.97;;;25.81;79.73
20630;BME280;17386;43.846;25.950;2022-08-21T00:38:04;100521.78;;;25.79;80.29
20630;BME280;17386;43.846;25.950;2022-08-21T00:40:39;100517.22;;;25.62;81.93
20630;BME280;17386;43.846;25.950;2022-08-21T00:43:07;100515.59;;;25.51;82.46
20630;BME280;17386;43.846;25.950;2022-08-21T00:45:33;100529.13;;;25.61;82.33
20630;BME280;17386;43.846;25.950;2022-08-21T00:47:59;100517.78;;;25.48;82.79
20630;BME280;17386;43.846;25.950;2022-08-21T00:50:29;100518.13;;;25.53;82.77
20630;BME280;17386;43.846;25.950;2022-08-21T00:52:56;100522.66;;;25.62;82.12
20630;BME280;17386;43.846;25.950;2022-08-21T00:55:23;100518.22;;;25.61;82.75
20630;BME280;17386;43.846;25.950;2022-08-21T00:57:55;100505.72;;;25.50;83.87
20630;BME280;17386;43.846;25.950;2022-08-21T01:00:28;100496.72;;;25.50;84.03
20630;BME280;17386;43.846;25.950;2022-08-21T01:02:56;100498.97;;;25.54;84.21
20630;BME280;17386;43.846;25.950;2022-08-21T01:05:22;100479.59;;;25.57;84.23
20630;BME280;17386;43.846;25.950;2022-08-21T01:07:48;100479.94;;;25.54;84.77
20630;BME280;17386;43.846;25.950;2022-08-21T01:10:13;100476.59;;;25.60;84.51
20630;BME280;17386;43.846;25.950;2022-08-21T01:12:40;100474.31;;;25.56;84.51
20630;BME280;17386;43.846;25.950;2022-08-21T01:15:07;100481.84;;;25.62;84.47
20630;BME280;17386;43.846;25.950;2022-08-21T01:17:34;100475.41;;;25.63;84.51
20630;BME280;17386;43.846;25.950;2022-08-21T01:20:04;100473.00;;;25.60;84.76
20630;BME280;17386;43.846;25.950;2022-08-21T01:22:31;100470.13;;;25.61;84.79
20630;BME280;17386;43.846;25.950;2022-08-21T01:24:56;100465.16;;;25.57;84.53
20630;BME280;17386;43.846;25.950;2022-08-21T01:27:22;100461.41;;;25.58;84.90
20630;BME280;17386;43.846;25.950;2022-08-21T01:32:19;100449.84;;;25.56;85.76
20630;BME280;17386;43.846;25.950;2022-08-21T01:34:47;100453.59;;;25.55;85.87
20630;BME280;17386;43.846;25.950;2022-08-21T01:37:14;100450.41;;;25.42;87.29
20630;BME280;17386;43.846;25.950;2022-08-21T01:39:40;100451.66;;;25.12;89.21
20630;BME280;17386;43.846;25.950;2022-08-21T01:42:07;100449.44;;;25.07;90.14
20630;BME280;17386;43.846;25.950;2022-08-21T01:44:33;100449.84;;;25.12;90.17
20630;BME280;17386;43.846;25.950;2022-08-21T01:47:00;100443.59;;;25.20;90.09
20630;BME280;17386;43.846;25.950;2022-08-21T01:49:26;100450.25;;;25.25;90.39
20630;BME280;17386;43.846;25.950;2022-08-21T01:51:52;100456.03;;;25.22;90.20
20630;BME280;17386;43.846;25.950;2022-08-21T01:54:18;100449.41;;;25.25;89.85
20630;BME280;17386;43.846;25.950;2022-08-21T01:56:48;100452.97;;;25.25;89.38
20630;BME280;17386;43.846;25.950;2022-08-21T01:59:16;100460.84;;;25.28;89.09
20630;BME280;17386;43.846;25.950;2022-08-21T02:01:41;100454.09;;;25.32;88.82
20630;BME280;17386;43.846;25.950;2022-08-21T02:04:08;100443.06;;;25.34;88.53
20630;BME280;17386;43.846;25.950;2022-08-21T02:06:34;100435.91;;;25.33;88.97
20630;BME280;17386;43.846;25.950;2022-08-21T02:09:03;100435.06;;;25.32;88.74
20630;BME280;17386;43.846;25.950;2022-08-21T02:11:31;100432.34;;;25.32;88.88
20630;BME280;17386;43.846;25.950;2022-08-21T02:13:56;100428.59;;;25.33;89.10
20630;BME280;17386;43.846;25.950;2022-08-21T02:16:22;100433.19;;;25.33;88.99
20630;BME280;17386;43.846;25.950;2022-08-21T02:18:48;100427.88;;;25.31;89.28
20630;BME280;17386;43.846;25.950;2022-08-21T02:21:13;100418.19;;;25.29;89.37
20630;BME280;17386;43.846;25.950;2022-08-21T02:23:38;100425.78;;;25.25;89.80
20630;BME280;17386;43.846;25.950;2022-08-21T02:26:06;100419.50;;;25.25;89.61
20630;BME280;17386;43.846;25.950;2022-08-21T02:28:33;100414.06;;;25.25;89.61
20630;BME280;17386;43.846;25.950;2022-08-21T02:30:59;100413.00;;;25.18;89.89
20630;BME280;17386;43.846;25.950;2022-08-21T02:33:25;100418.91;;;25.13;90.17
20630;BME280;17386;43.846;25.950;2022-08-21T02:35:51;100420.06;;;25.10;90.57
20630;BME280;17386;43.846;25.950;2022-08-21T02:38:22;100415.47;;;25.11;90.48
20630;BME280;17386;43.846;25.950;2022-08-21T02:40:50;100427.06;;;25.13;90.32
20630;BME280;17386;43.846;25.950;2022-08-21T02:43:17;100414.34;;;25.14;90.47
20630;BME280;17386;43.846;25.950;2022-08-21T02:45:43;100412.31;;;25.16;90.01
20630;BME280;17386;43.846;25.950;2022-08-21T02:48:11;100414.84;;;25.17;89.59
20630;BME280;17386;43.846;25.950;2022-08-21T02:50:43;100414.84;;;25.17;89.53
20630;BME280;17386;43.846;25.950;2022-08-21T02:53:11;100412.47;;;25.14;89.26
20630;BME280;17386;43.846;25.950;2022-08-21T02:55:38;100407.31;;;25.11;89.74
20630;BME280;17386;43.846;25.950;2022-08-21T02:58:06;100403.63;;;25.12;89.36
20630;BME280;17386;43.846;25.950;2022-08-21T03:00:33;100404.47;;;25.13;89.55
20630;BME280;17386;43.846;25.950;2022-08-21T03:02:59;100407.88;;;25.15;89.46
20630;BME280;17386;43.846;25.950;2022-08-21T03:05:27;100411.13;;;25.18;89.20
20630;BME280;17386;43.846;25.950;2022-08-21T03:07:53;100412.31;;;25.16;88.97
20630;BME280;17386;43.846;25.950;2022-08-21T03:10:20;100411.28;;;25.17;88.79
20630;BME280;17386;43.846;25.950;2022-08-21T03:12:47;100409.91;;;25.13;88.80
20630;BME280;17386;43.846;25.950;2022-08-21T03:15:14;100406.47;;;25.10;89.14
20630;BME280;17386;43.846;25.950;2022-08-21T03:17:40;100404.78;;;25.09;89.29
20630;BME280;17386;43.846;25.950;2022-08-21T03:20:07;100401.88;;;25.11;89.39
20630;BME280;17386;43.846;25.950;2022-08-21T03:22:33;100405.16;;;25.15;89.02
20630;BME280;17386;43.846;25.950;2022-08-21T03:24:59;100406.34;;;25.12;89.13
20630;BME280;17386;43.846;25.950;2022-08-21T03:27:27;100406.69;;;25.17;89.09
20630;BME280;17386;43.846;25.950;2022-08-21T03:29:53;100408.09;;;25.21;88.94
20630;BME280;17386;43.846;25.950;2022-08-21T03:32:19;100409.47;;;25.25;88.49
20630;BME280;17386;43.846;25.950;2022-08-21T03:34:45;100403.06;;;25.26;88.81
20630;BME280;17386;43.846;25.950;2022-08-21T03:37:11;100403.59;;;25.30;88.33
20630;BME280;17386;43.846;25.950;2022-08-21T03:39:37;100396.13;;;25.32;88.30
20630;BME280;17386;43.846;25.950;2022-08-21T03:42:02;100397.84;;;25.33;88.17
20630;BME280;17386;43.846;25.950;2022-08-21T03:44:28;100395.13;;;25.33;87.89
20630;BME280;17386;43.846;25.950;2022-08-21T03:46:54;100391.00;;;25.29;88.42
20630;BME280;17386;43.846;25.950;2022-08-21T03:49:20;100391.69;;;25.31;88.00
20630;BME280;17386;43.846;25.950;2022-08-21T03:51:46;100392.69;;;25.30;88.05
20630;BME280;17386;43.846;25.950;2022-08-21T03:54:11;100393.88;;;25.27;88.18
20630;BME280;17386;43.846;25.950;2022-08-21T03:56:36;100395.88;;;25.25;88.13
20630;BME280;17386;43.846;25.950;2022-08-21T03:59:02;100389.09;;;25.21;88.56
20630;BME280;17386;43.846;25.950;2022-08-21T04:01:28;100387.03;;;25.23;88.36
20630;BME280;17386;43.846;25.950;2022-08-21T04:03:54;100388.63;;;25.26;88.44
20630;BME280;17386;43.846;25.950;2022-08-21T04:06:20;100391.00;;;25.29;88.37
20630;BME280;17386;43.846;25.950;2022-08-21T04:08:45;100388.84;;;25.32;88.24
20630;BME280;17386;43.846;25.950;2022-08-21T04:11:11;100395.25;;;25.31;87.99
20630;BME280;17386;43.846;25.950;2022-08-21T04:13:37;100409.72;;;25.32;87.85
20630;BME280;17386;43.846;25.950;2022-08-21T04:16:03;100434.03;;;25.33;87.81
20630;BME280;17386;43.846;25.950;2022-08-21T04:18:28;100454.94;;;25.33;87.56
20630;BME280;17386;43.846;25.950;2022-08-21T04:20:56;100459.03;;;25.37;87.58
20630;BME280;17386;43.846;25.950;2022-08-21T04:23:23;100452.56;;;25.38;87.58
20630;BME280;17386;43.846;25.950;2022-08-21T04:25:48;100460.28;;;25.43;88.06
20630;BME280;17386;43.846;25.950;2022-08-21T04:28:14;100484.06;;;25.41;89.41
20630;BME280;17386;43.846;25.950;2022-08-21T04:30:39;100494.38;;;25.37;90.24
20630;BME280;17386;43.846;25.950;2022-08-21T04:33:05;100480.50;;;25.40;89.72
20630;BME280;17386;43.846;25.950;2022-08-21T04:35:31;100480.16;;;25.43;89.35
20630;BME280;17386;43.846;25.950;2022-08-21T04:37:57;100486.84;;;25.49;88.02
20630;BME280;17386;43.846;25.950;2022-08-21T04:40:25;100486.69;;;25.50;87.99
20630;BME280;17386;43.846;25.950;2022-08-21T04:43:11;100482.66;;;25.54;87.68
20630;BME280;17386;43.846;25.950;2022-08-21T04:45:45;100476.88;;;25.57;87.31
20630;BME280;17386;43.846;25.950;2022-08-21T04:48:13;100475.72;;;25.60;86.80
20630;BME280;17386;43.846;25.950;2022-08-21T04:50:47;100476.72;;;25.59;86.97
20630;BME280;17386;43.846;25.950;2022-08-21T04:53:18;100489.47;;;25.58;87.31
20630;BME280;17386;43.846;25.950;2022-08-21T04:55:46;100484.03;;;25.58;87.45
20630;BME280;17386;43.846;25.950;2022-08-21T04:58:15;100469.06;;;25.54;87.30
20630;BME280;17386;43.846;25.950;2022-08-21T05:00:42;100476.25;;;25.46;88.25
20630;BME280;17386;43.846;25.950;2022-08-21T05:03:09;100490.25;;;25.51;87.80
20630;BME280;17386;43.846;25.950;2022-08-21T05:05:37;100500.97;;;25.52;87.83
20630;BME280;17386;43.846;25.950;2022-08-21T05:08:04;100500.50;;;25.57;87.87
20630;BME280;17386;43.846;25.950;2022-08-21T05:10:30;100489.84;;;25.63;88.13
20630;BME280;17386;43.846;25.950;2022-08-21T05:12:57;100491.50;;;25.56;88.14
20630;BME280;17386;43.846;25.950;2022-08-21T05:15:23;100495.13;;;25.65;88.00
20630;BME280;17386;43.846;25.950;2022-08-21T05:17:48;100504.41;;;25.72;87.78
20630;BME280;17386;43.846;25.950;2022-08-21T05:20:15;100501.03;;;25.78;87.95
20630;BME280;17386;43.846;25.950;2022-08-21T05:22:41;100494.13;;;25.84;87.79
20630;BME280;17386;43.846;25.950;2022-08-21T05:25:08;100505.84;;;25.84;87.75
20630;BME280;17386;43.846;25.950;2022-08-21T05:27:34;100507.59;;;25.94;87.83
20630;BME280;17386;43.846;25.950;2022-08-21T05:30:00;100506.97;;;26.00;87.77
20630;BME280;17386;43.846;25.950;2022-08-21T05:32:26;100504.63;;;26.05;87.65
20630;BME280;17386;43.846;25.950;2022-08-21T05:34:52;100502.94;;;26.04;87.14
20630;BME280;17386;43.846;25.950;2022-08-21T05:37:18;100515.28;;;25.54;89.20
20630;BME280;17386;43.846;25.950;2022-08-21T05:39:44;100501.13;;;25.69;88.64
20630;BME280;17386;43.846;25.950;2022-08-21T05:42:10;100504.16;;;25.83;88.68
20630;BME280;17386;43.846;25.950;2022-08-21T05:44:35;100509.66;;;25.91;87.23
20630;BME280;17386;43.846;25.950;2022-08-21T05:47:07;100498.97;;;25.98;87.25
20630;BME280;17386;43.846;25.950;2022-08-21T05:49:34;100503.66;;;26.14;86.05
20630;BME280;17386;43.846;25.950;2022-08-21T05:52:00;100496.41;;;26.23;86.41
20630;BME280;17386;43.846;25.950;2022-08-21T05:54:25;100497.59;;;26.28;85.63
20630;BME280;17386;43.846;25.950;2022-08-21T05:56:51;100497.09;;;26.25;85.59
20630;BME280;17386;43.846;25.950;2022-08-21T05:59:17;100498.53;;;26.37;84.86
20630;BME280;17386;43.846;25.950;2022-08-21T06:01:43;100496.72;;;26.45;84.15
20630;BME280;17386;43.846;25.950;2022-08-21T06:04:11;100500.16;;;26.56;83.88
20630;BME280;17386;43.846;25.950;2022-08-21T06:06:37;100500.53;;;26.61;83.52
20630;BME280;17386;43.846;25.950;2022-08-21T06:09:03;100494.59;;;26.65;83.13
20630;BME280;17386;43.846;25.950;2022-08-21T06:11:30;100497.69;;;26.70;82.52
20630;BME280;17386;43.846;25.950;2022-08-21T06:13:55;100503.84;;;26.81;80.84
20630;BME280;17386;43.846;25.950;2022-08-21T06:16:21;100503.19;;;26.87;79.78
20630;BME280;17386;43.846;25.950;2022-08-21T06:18:47;100504.47;;;26.66;80.36
20630;BME280;17386;43.846;25.950;2022-08-21T06:21:13;100507.28;;;26.49;81.62
20630;BME280;17386;43.846;25.950;2022-08-21T06:23:39;100501.75;;;26.66;81.51
20630;BME280;17386;43.846;25.950;2022-08-21T06:26:06;100501.66;;;26.84;80.57
20630;BME280;17386;43.846;25.950;2022-08-21T06:28:32;100501.34;;;27.04;79.35
20630;BME280;17386;43.846;25.950;2022-08-21T06:30:59;100504.31;;;27.18;78.64
20630;BME280;17386;43.846;25.950;2022-08-21T06:33:24;100498.50;;;27.13;77.66
20630;BME280;17386;43.846;25.950;2022-08-21T06:35:50;100501.59;;;27.18;77.83
20630;BME280;17386;43.846;25.950;2022-08-21T06:38:16;100503.28;;;27.27;77.34
20630;BME280;17386;43.846;25.950;2022-08-21T06:40:41;100510.97;;;27.32;77.34
20630;BME280;17386;43.846;25.950;2022-08-21T06:43:10;100507.72;;;27.37;77.13
20630;BME280;17386;43.846;25.950;2022-08-21T06:45:36;100514.22;;;27.44;76.18
20630;BME280;17386;43.846;25.950;2022-08-21T06:48:02;100509.63;;;27.52;75.50
20630;BME280;17386;43.846;25.950;2022-08-21T06:50:29;100510.31;;;27.54;74.86
20630;BME280;17386;43.846;25.950;2022-08-21T06:53:09;100521.53;;;27.51;74.86
20630;BME280;17386;43.846;25.950;2022-08-21T06:55:35;100508.25;;;27.48;74.82
20630;BME280;17386;43.846;25.950;2022-08-21T06:58:02;100524.63;;;27.48;74.20
20630;BME280;17386;43.846;25.950;2022-08-21T07:00:28;100517.09;;;27.50;74.02
20630;BME280;17386;43.846;25.950;2022-08-21T07:02:54;100514.38;;;27.50;73.11
20630;BME280;17386;43.846;25.950;2022-08-21T07:05:21;100514.44;;;27.75;72.98
20630;BME280;17386;43.846;25.950;2022-08-21T07:07:47;100519.38;;;27.79;71.69
20630;BME280;17386;43.846;25.950;2022-08-21T07:10:14;100517.84;;;27.93;70.95
20630;BME280;17386;43.846;25.950;2022-08-21T07:12:40;100504.47;;;28.15;69.68
20630;BME280;17386;43.846;25.950;2022-08-21T07:15:06;100509.56;;;28.34;68.70
20630;BME280;17386;43.846;25.950;2022-08-21T07:17:32;100505.38;;;28.54;68.03
20630;BME280;17386;43.846;25.950;2022-08-21T07:19:57;100505.66;;;28.76;67.02
20630;BME280;17386;43.846;25.950;2022-08-21T07:22:23;100508.03;;;28.79;65.31
20630;BME280;17386;43.846;25.950;2022-08-21T07:24:49;100504.69;;;29.00;65.79
20630;BME280;17386;43.846;25.950;2022-08-21T07:27:14;100500.72;;;29.10;65.08
20630;BME280;17386;43.846;25.950;2022-08-21T07:29:40;100495.56;;;29.07;64.15
20630;BME280;17386;43.846;25.950;2022-08-21T07:32:06;100500.47;;;29.20;63.40
20630;BME280;17386;43.846;25.950;2022-08-21T07:34:31;100500.84;;;29.09;63.09
20630;BME280;17386;43.846;25.950;2022-08-21T07:36:57;100495.31;;;29.25;63.36
20630;BME280;17386;43.846;25.950;2022-08-21T07:39:23;100497.72;;;29.43;62.87
20630;BME280;17386;43.846;25.950;2022-08-21T07:41:49;100487.03;;;29.56;62.06
20630;BME280;17386;43.846;25.950;2022-08-21T07:44:14;100484.88;;;29.43;61.88
20630;BME280;17386;43.846;25.950;2022-08-21T07:46:40;100479.97;;;29.39;62.45
20630;BME280;17386;43.846;25.950;2022-08-21T07:49:05;100481.13;;;29.45;62.75
20630;BME280;17386;43.846;25.950;2022-08-21T07:51:31;100475.44;;;29.54;62.33
20630;BME280;17386;43.846;25.950;2022-08-21T07:53:59;100481.47;;;29.41;61.91
20630;BME280;17386;43.846;25.950;2022-08-21T07:56:26;100480.50;;;29.57;61.55
20630;BME280;17386;43.846;25.950;2022-08-21T07:58:51;100469.53;;;29.65;60.89
20630;BME280;17386;43.846;25.950;2022-08-21T08:01:17;100474.28;;;29.86;60.34
20630;BME280;17386;43.846;25.950;2022-08-21T08:03:43;100469.47;;;29.88;59.41
20630;BME280;17386;43.846;25.950;2022-08-21T08:06:10;100470.03;;;29.98;59.47
20630;BME280;17386;43.846;25.950;2022-08-21T08:08:38;100468.94;;;30.22;58.73
20630;BME280;17386;43.846;25.950;2022-08-21T08:11:04;100469.03;;;30.44;57.70
20630;BME280;17386;43.846;25.950;2022-08-21T08:13:30;100458.06;;;30.44;57.95
20630;BME280;17386;43.846;25.950;2022-08-21T08:15:55;100468.00;;;30.30;57.09
20630;BME280;17386;43.846;25.950;2022-08-21T08:18:20;100455.59;;;30.19;57.36
20630;BME280;17386;43.846;25.950;2022-08-21T08:20:46;100453.75;;;30.35;57.13
20630;BME280;17386;43.846;25.950;2022-08-21T08:23:12;100456.28;;;30.36;57.21
20630;BME280;17386;43.846;25.950;2022-08-21T08:25:38;100446.41;;;29.97;57.08
20630;BME280;17386;43.846;25.950;2022-08-21T08:28:05;100449.44;;;30.03;57.57
20630;BME280;17386;43.846;25.950;2022-08-21T08:30:30;100442.28;;;30.31;56.49
20630;BME280;17386;43.846;25.950;2022-08-21T08:32:56;100451.81;;;30.50;55.66
20630;BME280;17386;43.846;25.950;2022-08-21T08:35:23;100442.50;;;30.30;55.94
20630;BME280;17386;43.846;25.950;2022-08-21T08:37:50;100436.53;;;30.11;56.48
20630;BME280;17386;43.846;25.950;2022-08-21T08:40:39;100442.19;;;29.95;57.03
20630;BME280;17386;43.846;25.950;2022-08-21T08:43:06;100442.19;;;29.95;57.56
20630;BME280;17386;43.846;25.950;2022-08-21T08:45:36;100441.59;;;29.85;57.87
20630;BME280;17386;43.846;25.950;2022-08-21T08:48:05;100440.31;;;29.58;59.63
20630;BME280;17386;43.846;25.950;2022-08-21T08:50:56;100433.19;;;29.49;61.11
20630;BME280;17386;43.846;25.950;2022-08-21T08:53:27;100432.28;;;29.56;60.90
20630;BME280;17386;43.846;25.950;2022-08-21T08:55:53;100436.97;;;29.48;61.21
20630;BME280;17386;43.846;25.950;2022-08-21T08:58:32;100433.16;;;29.72;61.03
20630;BME280;17386;43.846;25.950;2022-08-21T09:01:00;100429.88;;;29.91;60.61
20630;BME280;17386;43.846;25.950;2022-08-21T09:03:27;100426.78;;;30.09;59.82
20630;BME280;17386;43.846;25.950;2022-08-21T09:06:05;100418.38;;;30.25;58.84
20630;BME280;17386;43.846;25.950;2022-08-21T09:11:23;100410.50;;;30.51;58.25
20630;BME280;17386;43.846;25.950;2022-08-21T09:14:05;100419.38;;;30.54;57.78
20630;BME280;17386;43.846;25.950;2022-08-21T09:19:39;100408.66;;;30.22;58.75
20630;BME280;17386;43.846;25.950;2022-08-21T09:27:33;100404.66;;;30.69;56.65
20630;BME280;17386;43.846;25.950;2022-08-21T09:29:59;100398.13;;;30.92;55.82
20630;BME280;17386;43.846;25.950;2022-08-21T09:32:30;100401.91;;;31.12;54.86
20630;BME280;17386;43.846;25.950;2022-08-21T09:37:33;100395.16;;;31.15;54.52
20630;BME280;17386;43.846;25.950;2022-08-21T09:40:02;100388.41;;;31.32;53.54
20630;BME280;17386;43.846;25.950;2022-08-21T09:42:30;100385.25;;;31.35;54.05
20630;BME280;17386;43.846;25.950;2022-08-21T09:45:16;100383.13;;;31.58;53.02
20630;BME280;17386;43.846;25.950;2022-08-21T09:47:43;100369.78;;;31.55;52.05
20630;BME280;17386;43.846;25.950;2022-08-21T09:50:24;100376.97;;;31.56;52.78
20630;BME280;17386;43.846;25.950;2022-08-21T09:52:53;100373.63;;;31.61;52.35
20630;BME280;17386;43.846;25.950;2022-08-21T09:55:50;100365.19;;;31.63;52.06
20630;BME280;17386;43.846;25.950;2022-08-21T09:58:36;100364.66;;;31.46;52.29
20630;BME280;17386;43.846;25.950;2022-08-21T10:01:05;100356.41;;;31.46;53.18
20630;BME280;17386;43.846;25.950;2022-08-21T10:03:31;100364.06;;;31.78;51.81
20630;BME280;17386;43.846;25.950;2022-08-21T10:06:00;100354.75;;;32.14;50.76
20630;BME280;17386;43.846;25.950;2022-08-21T10:08:28;100356.28;;;32.30;49.54
20630;BME280;17386;43.846;25.950;2022-08-21T10:11:05;100355.53;;;32.49;49.00
20630;BME280;17386;43.846;25.950;2022-08-21T10:21:19;100335.75;;;33.27;46.28
20630;BME280;17386;43.846;25.950;2022-08-21T10:29:58;100329.75;;;34.41;42.50
20630;BME280;17386;43.846;25.950;2022-08-21T10:32:47;100328.50;;;34.75;41.03
20630;BME280;17386;43.846;25.950;2022-08-21T10:35:33;100314.50;;;35.08;39.34
20630;BME280;17386;43.846;25.950;2022-08-21T10:43:36;100316.44;;;35.51;38.97
20630;BME280;17386;43.846;25.950;2022-08-21T10:48:52;100306.34;;;35.63;38.51
20630;BME280;17386;43.846;25.950;2022-08-21T10:54:24;100301.91;;;35.37;39.00
20630;BME280;17386;43.846;25.950;2022-08-21T10:57:00;100303.34;;;35.40;38.61
20630;BME280;17386;43.846;25.950;2022-08-21T10:59:44;100290.50;;;35.52;38.50
20630;BME280;17386;43.846;25.950;2022-08-21T11:02:17;100282.16;;;35.95;37.63
20630;BME280;17386;43.846;25.950;2022-08-21T11:09:56;100278.38;;;36.08;36.97
20630;BME280;17386;43.846;25.950;2022-08-21T11:12:24;100278.13;;;35.36;38.28
20630;BME280;17386;43.846;25.950;2022-08-21T11:15:00;100271.34;;;35.32;37.72
20630;BME280;17386;43.846;25.950;2022-08-21T11:17:34;100258.75;;;35.43;37.76
20630;BME280;17386;43.846;25.950;2022-08-21T11:20:13;100255.38;;;35.34;37.88
20630;BME280;17386;43.846;25.950;2022-08-21T11:22:44;100257.09;;;35.35;38.18
20630;BME280;17386;43.846;25.950;2022-08-21T11:25:37;100252.00;;;34.89;38.24
20630;BME280;17386;43.846;25.950;2022-08-21T11:28:09;100252.00;;;34.89;38.00
20630;BME280;17386;43.846;25.950;2022-08-21T11:36:25;100241.38;;;34.29;39.29
20630;BME280;17386;43.846;25.950;2022-08-21T11:42:46;100231.78;;;34.70;39.77
20630;BME280;17386;43.846;25.950;2022-08-21T11:45:26;100217.03;;;34.82;39.28
20630;BME280;17386;43.846;25.950;2022-08-21T11:50:30;100221.44;;;34.59;39.75
20630;BME280;17386;43.846;25.950;2022-08-21T11:53:15;100218.03;;;34.63;39.76
20630;BME280;17386;43.846;25.950;2022-08-21T11:58:23;100217.06;;;34.51;39.55
20630;BME280;17386;43.846;25.950;2022-08-21T12:01:10;100204.94;;;34.52;39.79
20630;BME280;17386;43.846;25.950;2022-08-21T12:03:40;100197.16;;;34.49;39.26
20630;BME280;17386;43.846;25.950;2022-08-21T12:06:11;100200.91;;;34.54;39.13
20630;BME280;17386;43.846;25.950;2022-08-21T12:08:58;100191.16;;;34.52;38.85
20630;BME280;17386;43.846;25.950;2022-08-21T12:11:25;100192.03;;;34.52;39.64
20630;BME280;17386;43.846;25.950;2022-08-21T12:16:38;100179.47;;;34.81;39.47
20630;BME280;17386;43.846;25.950;2022-08-21T12:19:11;100183.19;;;34.94;39.60
20630;BME280;17386;43.846;25.950;2022-08-21T12:21:54;100188.03;;;34.98;37.35
20630;BME280;17386;43.846;25.950;2022-08-21T12:24:35;100182.59;;;34.85;37.57
20630;BME280;17386;43.846;25.950;2022-08-21T12:29:55;100180.31;;;34.57;35.57
20630;BME280;17386;43.846;25.950;2022-08-21T12:32:30;100178.31;;;34.39;36.86
20630;BME280;17386;43.846;25.950;2022-08-21T12:35:16;100178.81;;;34.29;36.33
20630;BME280;17386;43.846;25.950;2022-08-21T12:37:58;100175.88;;;34.24;36.12
20630;BME280;17386;43.846;25.950;2022-08-21T12:40:31;100181.25;;;34.13;38.38
20630;BME280;17386;43.846;25.950;2022-08-21T12:43:02;100172.91;;;33.88;40.80
20630;BME280;17386;43.846;25.950;2022-08-21T12:45:34;100183.41;;;33.66;40.55
20630;BME280;17386;43.846;25.950;2022-08-21T12:48:13;100180.28;;;33.49;40.13
20630;BME280;17386;43.846;25.950;2022-08-21T12:50:57;100161.69;;;33.31;39.42
20630;BME280;17386;43.846;25.950;2022-08-21T12:53:31;100161.97;;;33.16;38.74
20630;BME280;17386;43.846;25.950;2022-08-21T12:56:02;100160.09;;;33.04;38.36
20630;BME280;17386;43.846;25.950;2022-08-21T12:58:30;100167.28;;;32.91;38.89
20630;BME280;17386;43.846;25.950;2022-08-21T13:01:01;100174.47;;;32.73;39.76
20630;BME280;17386;43.846;25.950;2022-08-21T13:03:28;100178.50;;;32.63;39.92
20630;BME280;17386;43.846;25.950;2022-08-21T13:05:54;100182.09;;;32.51;40.91
20630;BME280;17386;43.846;25.950;2022-08-21T13:08:21;100185.88;;;32.30;44.25
20630;BME280;17386;43.846;25.950;2022-08-21T13:10:57;100186.69;;;32.10;46.69
20630;BME280;17386;43.846;25.950;2022-08-21T13:13:26;100183.25;;;31.89;47.79
20630;BME280;17386;43.846;25.950;2022-08-21T13:15:57;100190.53;;;31.68;47.87
20630;BME280;17386;43.846;25.950;2022-08-21T13:18:27;100195.75;;;31.43;48.21
20630;BME280;17386;43.846;25.950;2022-08-21T13:21:07;100193.88;;;31.22;48.67
20630;BME280;17386;43.846;25.950;2022-08-21T13:23:33;100201.72;;;30.91;49.28
20630;BME280;17386;43.846;25.950;2022-08-21T13:25:59;100207.78;;;30.65;50.40
20630;BME280;17386;43.846;25.950;2022-08-21T13:28:33;100217.59;;;30.31;nan
20630;BME280;17386;43.846;25.950;2022-08-21T13:31:00;100213.75;;;29.89;57.03
20630;BME280;17386;43.846;25.950;2022-08-21T13:33:29;100205.91;;;29.65;58.09
20630;BME280;17386;43.846;25.950;2022-08-21T13:38:28;100186.38;;;29.24;60.36
20630;BME280;17386;43.846;25.950;2022-08-21T13:41:23;100206.09;;;29.19;60.28
20630;BME280;17386;43.846;25.950;2022-08-21T13:46:45;100197.97;;;28.96;59.92
20630;BME280;17386;43.846;25.950;2022-08-21T13:49:16;100209.78;;;28.88;59.86
20630;BME280;17386;43.846;25.950;2022-08-21T13:51:43;100209.00;;;28.65;63.08
20630;BME280;17386;43.846;25.950;2022-08-21T13:54:23;100211.25;;;28.16;67.43
20630;BME280;17386;43.846;25.950;2022-08-21T13:56:50;100220.09;;;27.95;70.70
20630;BME280;17386;43.846;25.950;2022-08-21T13:59:30;100220.53;;;27.67;72.75
20630;BME280;17386;43.846;25.950;2022-08-21T14:02:00;100220.50;;;27.36;76.42